sensor_id;sensor_type;location;lat;lon;timestamp;temperature;humidity
12901;DHT22;6518;50.930;5.344;2022-08-19T00:01:15;23.00;70.80
12901;DHT22;6518;50.930;5.344;2022-08-19T00:03:42;23.00;70.70
12901;DHT22;6518;50.930;5.344;2022-08-19T00:06:10;22.90;70.70
12901;DHT22;6518;50.930;5.344;2022-08-19T00:08:38;22.90;70.80
12901;DHT22;6518;50.930;5.344;2022-08-19T00:11:05;22.90;71.00
12901;DHT22;6518;50.930;5.344;2022-08-19T00:13:33;22.90;71.00
12901;DHT22;6518;50.930;5.344;2022-08-19T00:16:00;23.00;71.00
12901;DHT22;6518;50.930;5.344;2022-08-19T00:18:27;22.90;71.00
12901;DHT22;6518;50.930;5.344;2022-08-19T00:20:54;22.90;70.90
12901;DHT22;6518;50.930;5.344;2022-08-19T00:23:22;22.90;70.90
12901;DHT22;6518;50.930;5.344;2022-08-19T00:25:49;22.90;70.90
12901;DHT22;6518;50.930;5.344;2022-08-19T00:28:16;22.90;70.90
12901;DHT22;6518;50.930;5.344;2022-08-19T00:30:43;22.90;71.00
12901;DHT22;6518;50.930;5.344;2022-08-19T00:33:10;22.80;71.10
12901;DHT22;6518;50.930;5.344;2022-08-19T00:35:37;22.80;71.10
12901;DHT22;6518;50.930;5.344;2022-08-19T00:38:04;22.80;71.20
12901;DHT22;6518;50.930;5.344;2022-08-19T00:40:33;22.80;71.20
12901;DHT22;6518;50.930;5.344;2022-08-19T00:43:00;22.70;71.20
12901;DHT22;6518;50.930;5.344;2022-08-19T00:45:28;22.70;71.20
12901;DHT22;6518;50.930;5.344;2022-08-19T00:47:57;22.70;71.30
12901;DHT22;6518;50.930;5.344;2022-08-19T00:50:29;22.60;71.30
12901;DHT22;6518;50.930;5.344;2022-08-19T00:52:57;22.60;71.60
12901;DHT22;6518;50.930;5.344;2022-08-19T00:55:26;22.50;71.60
12901;DHT22;6518;50.930;5.344;2022-08-19T00:57:58;22.50;71.70
12901;DHT22;6518;50.930;5.344;2022-08-19T01:00:27;22.50;71.80
12901;DHT22;6518;50.930;5.344;2022-08-19T01:02:55;22.40;71.80
12901;DHT22;6518;50.930;5.344;2022-08-19T01:05:25;22.40;72.00
12901;DHT22;6518;50.930;5.344;2022-08-19T01:07:53;22.30;71.90
12901;DHT22;6518;50.930;5.344;2022-08-19T01:10:25;22.30;72.00
12901;DHT22;6518;50.930;5.344;2022-08-19T01:12:52;22.20;72.20
12901;DHT22;6518;50.930;5.344;2022-08-19T01:15:26;22.20;72.10
12901;DHT22;6518;50.930;5.344;2022-08-19T01:17:55;22.10;72.20
12901;DHT22;6518;50.930;5.344;2022-08-19T01:20:23;22.00;72.40
12901;DHT22;6518;50.930;5.344;2022-08-19T01:22:54;21.90;72.60
12901;DHT22;6518;50.930;5.344;2022-08-19T01:25:28;21.80;72.70
12901;DHT22;6518;50.930;5.344;2022-08-19T01:27:56;21.80;73.00
12901;DHT22;6518;50.930;5.344;2022-08-19T01:30:26;21.70;72.80
12901;DHT22;6518;50.930;5.344;2022-08-19T01:32:54;21.60;73.00
12901;DHT22;6518;50.930;5.344;2022-08-19T01:35:23;21.50;73.30
12901;DHT22;6518;50.930;5.344;2022-08-19T01:37:54;21.50;73.60
12901;DHT22;6518;50.930;5.344;2022-08-19T01:40:25;21.50;74.00
12901;DHT22;6518;50.930;5.344;2022-08-19T01:42:53;21.40;74.00
12901;DHT22;6518;50.930;5.344;2022-08-19T01:45:22;21.40;74.20
12901;DHT22;6518;50.930;5.344;2022-08-19T01:47:49;21.30;74.60
12901;DHT22;6518;50.930;5.344;2022-08-19T01:50:16;21.30;75.60
12901;DHT22;6518;50.930;5.344;2022-08-19T01:52:44;21.20;74.80
12901;DHT22;6518;50.930;5.344;2022-08-19T01:55:15;21.20;75.10
12901;DHT22;6518;50.930;5.344;2022-08-19T01:57:45;21.30;75.30
12901;DHT22;6518;50.930;5.344;2022-08-19T02:00:15;21.30;75.20
12901;DHT22;6518;50.930;5.344;2022-08-19T02:02:43;21.20;75.10
12901;DHT22;6518;50.930;5.344;2022-08-19T02:05:10;21.20;75.30
12901;DHT22;6518;50.930;5.344;2022-08-19T02:07:38;21.10;75.50
12901;DHT22;6518;50.930;5.344;2022-08-19T02:10:09;21.10;75.80
12901;DHT22;6518;50.930;5.344;2022-08-19T02:12:37;21.10;75.90
12901;DHT22;6518;50.930;5.344;2022-08-19T02:15:06;21.10;76.10
12901;DHT22;6518;50.930;5.344;2022-08-19T02:17:33;21.10;76.30
12901;DHT22;6518;50.930;5.344;2022-08-19T02:20:01;21.10;76.50
12901;DHT22;6518;50.930;5.344;2022-08-19T02:22:28;21.10;76.70
12901;DHT22;6518;50.930;5.344;2022-08-19T02:24:55;21.10;76.80
12901;DHT22;6518;50.930;5.344;2022-08-19T02:27:22;21.10;77.00
12901;DHT22;6518;50.930;5.344;2022-08-19T02:29:51;21.20;78.00
12901;DHT22;6518;50.930;5.344;2022-08-19T02:32:18;21.20;77.30
12901;DHT22;6518;50.930;5.344;2022-08-19T02:34:46;21.30;77.40
12901;DHT22;6518;50.930;5.344;2022-08-19T02:37:13;21.30;77.40
12901;DHT22;6518;50.930;5.344;2022-08-19T02:39:54;21.30;77.90
12901;DHT22;6518;50.930;5.344;2022-08-19T02:42:21;21.30;76.80
12901;DHT22;6518;50.930;5.344;2022-08-19T02:44:48;21.20;76.70
12901;DHT22;6518;50.930;5.344;2022-08-19T02:47:17;21.10;76.70
12901;DHT22;6518;50.930;5.344;2022-08-19T02:49:45;21.00;76.90
12901;DHT22;6518;50.930;5.344;2022-08-19T02:52:12;21.00;77.00
12901;DHT22;6518;50.930;5.344;2022-08-19T02:54:39;20.90;77.40
12901;DHT22;6518;50.930;5.344;2022-08-19T02:57:06;20.80;77.90
12901;DHT22;6518;50.930;5.344;2022-08-19T02:59:33;20.80;78.00
12901;DHT22;6518;50.930;5.344;2022-08-19T03:02:00;20.70;78.40
12901;DHT22;6518;50.930;5.344;2022-08-19T03:04:29;20.70;78.90
12901;DHT22;6518;50.930;5.344;2022-08-19T03:06:56;20.70;78.90
12901;DHT22;6518;50.930;5.344;2022-08-19T03:09:23;20.60;79.30
12901;DHT22;6518;50.930;5.344;2022-08-19T03:11:50;20.50;79.30
12901;DHT22;6518;50.930;5.344;2022-08-19T03:14:17;20.40;80.10
12901;DHT22;6518;50.930;5.344;2022-08-19T03:16:46;20.40;80.80
12901;DHT22;6518;50.930;5.344;2022-08-19T03:19:16;20.40;81.40
12901;DHT22;6518;50.930;5.344;2022-08-19T03:21:45;20.30;82.20
12901;DHT22;6518;50.930;5.344;2022-08-19T03:24:13;20.30;83.00
12901;DHT22;6518;50.930;5.344;2022-08-19T03:26:42;20.40;83.50
12901;DHT22;6518;50.930;5.344;2022-08-19T03:29:10;20.40;84.00
12901;DHT22;6518;50.930;5.344;2022-08-19T03:31:38;20.40;83.90
12901;DHT22;6518;50.930;5.344;2022-08-19T03:34:05;20.40;84.40
12901;DHT22;6518;50.930;5.344;2022-08-19T03:36:33;20.40;84.60
12901;DHT22;6518;50.930;5.344;2022-08-19T03:39:01;20.30;85.40
12901;DHT22;6518;50.930;5.344;2022-08-19T03:41:30;20.40;85.40
12901;DHT22;6518;50.930;5.344;2022-08-19T03:43:58;20.40;85.90
12901;DHT22;6518;50.930;5.344;2022-08-19T03:46:28;20.40;86.50
12901;DHT22;6518;50.930;5.344;2022-08-19T03:48:57;20.40;86.60
12901;DHT22;6518;50.930;5.344;2022-08-19T03:51:26;20.40;85.80
12901;DHT22;6518;50.930;5.344;2022-08-19T03:53:54;20.40;85.30
12901;DHT22;6518;50.930;5.344;2022-08-19T03:56:23;20.30;85.90
12901;DHT22;6518;50.930;5.344;2022-08-19T03:58:51;20.30;87.20
12901;DHT22;6518;50.930;5.344;2022-08-19T04:01:21;20.40;87.40
12901;DHT22;6518;50.930;5.344;2022-08-19T04:03:48;20.40;87.00
12901;DHT22;6518;50.930;5.344;2022-08-19T04:06:17;20.40;86.60
12901;DHT22;6518;50.930;5.344;2022-08-19T04:08:47;20.40;86.80
12901;DHT22;6518;50.930;5.344;2022-08-19T04:11:16;20.30;87.20
12901;DHT22;6518;50.930;5.344;2022-08-19T04:13:45;20.30;87.10
12901;DHT22;6518;50.930;5.344;2022-08-19T04:16:12;20.20;87.00
12901;DHT22;6518;50.930;5.344;2022-08-19T04:18:39;20.20;87.40
12901;DHT22;6518;50.930;5.344;2022-08-19T04:21:08;20.10;88.50
12901;DHT22;6518;50.930;5.344;2022-08-19T04:23:35;20.20;89.60
12901;DHT22;6518;50.930;5.344;2022-08-19T04:26:02;20.20;90.30
12901;DHT22;6518;50.930;5.344;2022-08-19T04:28:29;20.30;90.50
12901;DHT22;6518;50.930;5.344;2022-08-19T04:30:57;20.30;90.10
12901;DHT22;6518;50.930;5.344;2022-08-19T04:33:25;20.30;88.20
12901;DHT22;6518;50.930;5.344;2022-08-19T04:35:54;20.20;87.40
12901;DHT22;6518;50.930;5.344;2022-08-19T04:38:23;20.20;88.10
12901;DHT22;6518;50.930;5.344;2022-08-19T04:40:51;20.10;88.70
12901;DHT22;6518;50.930;5.344;2022-08-19T04:43:37;20.00;89.60
12901;DHT22;6518;50.930;5.344;2022-08-19T04:46:07;20.00;90.00
12901;DHT22;6518;50.930;5.344;2022-08-19T04:48:34;20.00;90.00
12901;DHT22;6518;50.930;5.344;2022-08-19T04:51:05;19.90;90.00
12901;DHT22;6518;50.930;5.344;2022-08-19T04:53:34;19.90;90.50
12901;DHT22;6518;50.930;5.344;2022-08-19T04:56:05;19.90;90.30
12901;DHT22;6518;50.930;5.344;2022-08-19T04:58:33;19.90;90.20
12901;DHT22;6518;50.930;5.344;2022-08-19T05:01:00;19.90;90.20
12901;DHT22;6518;50.930;5.344;2022-08-19T05:03:30;19.90;90.40
12901;DHT22;6518;50.930;5.344;2022-08-19T05:06:04;19.90;91.20
12901;DHT22;6518;50.930;5.344;2022-08-19T05:08:34;19.90;91.40
12901;DHT22;6518;50.930;5.344;2022-08-19T05:11:06;19.90;91.30
12901;DHT22;6518;50.930;5.344;2022-08-19T05:13:33;20.00;91.80
12901;DHT22;6518;50.930;5.344;2022-08-19T05:16:00;20.00;91.80
12901;DHT22;6518;50.930;5.344;2022-08-19T05:18:29;20.10;91.60
12901;DHT22;6518;50.930;5.344;2022-08-19T05:21:16;20.20;91.70
12901;DHT22;6518;50.930;5.344;2022-08-19T05:24:02;20.20;91.40
12901;DHT22;6518;50.930;5.344;2022-08-19T05:26:29;20.20;91.20
12901;DHT22;6518;50.930;5.344;2022-08-19T05:28:56;20.30;91.00
12901;DHT22;6518;50.930;5.344;2022-08-19T05:31:23;20.30;90.30
12901;DHT22;6518;50.930;5.344;2022-08-19T05:33:51;20.30;90.20
12901;DHT22;6518;50.930;5.344;2022-08-19T05:36:18;20.30;90.50
12901;DHT22;6518;50.930;5.344;2022-08-19T05:38:45;20.30;90.70
12901;DHT22;6518;50.930;5.344;2022-08-19T05:41:14;20.30;91.00
12901;DHT22;6518;50.930;5.344;2022-08-19T05:43:42;20.40;91.00
12901;DHT22;6518;50.930;5.344;2022-08-19T05:46:16;20.40;90.80
12901;DHT22;6518;50.930;5.344;2022-08-19T05:48:43;20.40;90.60
12901;DHT22;6518;50.930;5.344;2022-08-19T05:51:12;20.40;90.60
12901;DHT22;6518;50.930;5.344;2022-08-19T05:53:39;20.50;89.80
12901;DHT22;6518;50.930;5.344;2022-08-19T05:56:07;20.50;89.30
12901;DHT22;6518;50.930;5.344;2022-08-19T05:58:35;20.50;89.10
12901;DHT22;6518;50.930;5.344;2022-08-19T06:01:02;20.40;88.30
12901;DHT22;6518;50.930;5.344;2022-08-19T06:03:32;20.40;87.40
12901;DHT22;6518;50.930;5.344;2022-08-19T06:06:00;20.40;87.20
12901;DHT22;6518;50.930;5.344;2022-08-19T06:08:29;20.40;87.40
12901;DHT22;6518;50.930;5.344;2022-08-19T06:10:56;20.40;86.50
12901;DHT22;6518;50.930;5.344;2022-08-19T06:13:23;20.30;86.00
12901;DHT22;6518;50.930;5.344;2022-08-19T06:15:51;20.30;86.50
12901;DHT22;6518;50.930;5.344;2022-08-19T06:18:18;20.30;86.30
12901;DHT22;6518;50.930;5.344;2022-08-19T06:20:45;20.30;87.30
12901;DHT22;6518;50.930;5.344;2022-08-19T06:23:12;20.40;87.80
12901;DHT22;6518;50.930;5.344;2022-08-19T06:25:41;20.40;87.60
12901;DHT22;6518;50.930;5.344;2022-08-19T06:28:08;20.50;87.20
12901;DHT22;6518;50.930;5.344;2022-08-19T06:30:36;20.50;87.40
12901;DHT22;6518;50.930;5.344;2022-08-19T06:33:03;20.60;85.60
12901;DHT22;6518;50.930;5.344;2022-08-19T06:35:31;20.60;85.00
12901;DHT22;6518;50.930;5.344;2022-08-19T06:37:57;20.70;84.70
12901;DHT22;6518;50.930;5.344;2022-08-19T06:40:24;20.70;83.70
12901;DHT22;6518;50.930;5.344;2022-08-19T06:42:54;20.70;83.70
12901;DHT22;6518;50.930;5.344;2022-08-19T06:45:21;20.70;83.80
12901;DHT22;6518;50.930;5.344;2022-08-19T06:47:48;20.80;82.30
12901;DHT22;6518;50.930;5.344;2022-08-19T06:50:17;20.70;82.40
12901;DHT22;6518;50.930;5.344;2022-08-19T06:52:44;20.70;82.60
12901;DHT22;6518;50.930;5.344;2022-08-19T06:55:12;20.80;82.50
12901;DHT22;6518;50.930;5.344;2022-08-19T06:57:39;20.80;82.70
12901;DHT22;6518;50.930;5.344;2022-08-19T07:00:09;20.90;81.60
12901;DHT22;6518;50.930;5.344;2022-08-19T07:02:39;20.90;81.50
12901;DHT22;6518;50.930;5.344;2022-08-19T07:05:07;20.90;81.00
12901;DHT22;6518;50.930;5.344;2022-08-19T07:07:34;21.00;81.00
12901;DHT22;6518;50.930;5.344;2022-08-19T07:10:04;21.00;81.50
12901;DHT22;6518;50.930;5.344;2022-08-19T07:12:32;21.10;81.10
12901;DHT22;6518;50.930;5.344;2022-08-19T07:14:59;21.20;81.10
12901;DHT22;6518;50.930;5.344;2022-08-19T07:17:28;21.30;80.80
12901;DHT22;6518;50.930;5.344;2022-08-19T07:19:55;21.30;80.70
12901;DHT22;6518;50.930;5.344;2022-08-19T07:22:22;21.40;80.20
12901;DHT22;6518;50.930;5.344;2022-08-19T07:24:49;21.40;79.90
12901;DHT22;6518;50.930;5.344;2022-08-19T07:27:16;21.40;79.60
12901;DHT22;6518;50.930;5.344;2022-08-19T07:29:42;21.40;78.40
12901;DHT22;6518;50.930;5.344;2022-08-19T07:32:10;21.30;78.70
12901;DHT22;6518;50.930;5.344;2022-08-19T07:34:38;21.30;78.80
12901;DHT22;6518;50.930;5.344;2022-08-19T07:37:06;21.20;79.60
12901;DHT22;6518;50.930;5.344;2022-08-19T07:39:35;21.30;80.40
12901;DHT22;6518;50.930;5.344;2022-08-19T07:42:05;21.40;80.30
12901;DHT22;6518;50.930;5.344;2022-08-19T07:44:33;21.50;80.20
12901;DHT22;6518;50.930;5.344;2022-08-19T07:47:00;21.60;80.20
12901;DHT22;6518;50.930;5.344;2022-08-19T07:49:27;21.70;79.80
12901;DHT22;6518;50.930;5.344;2022-08-19T07:51:58;21.80;79.60
12901;DHT22;6518;50.930;5.344;2022-08-19T07:54:29;22.00;78.90
12901;DHT22;6518;50.930;5.344;2022-08-19T07:56:56;22.00;78.40
12901;DHT22;6518;50.930;5.344;2022-08-19T07:59:24;22.10;77.90
12901;DHT22;6518;50.930;5.344;2022-08-19T08:01:51;22.10;77.50
12901;DHT22;6518;50.930;5.344;2022-08-19T08:04:19;22.10;77.20
12901;DHT22;6518;50.930;5.344;2022-08-19T08:07:06;22.10;76.90
12901;DHT22;6518;50.930;5.344;2022-08-19T08:09:51;22.10;76.70
12901;DHT22;6518;50.930;5.344;2022-08-19T08:12:21;22.10;76.00
12901;DHT22;6518;50.930;5.344;2022-08-19T08:14:52;22.00;76.00
12901;DHT22;6518;50.930;5.344;2022-08-19T08:17:23;22.00;76.50
12901;DHT22;6518;50.930;5.344;2022-08-19T08:19:50;22.10;76.00
12901;DHT22;6518;50.930;5.344;2022-08-19T08:22:20;22.10;75.90
12901;DHT22;6518;50.930;5.344;2022-08-19T08:25:07;22.20;76.10
12901;DHT22;6518;50.930;5.344;2022-08-19T08:27:36;22.30;76.10
12901;DHT22;6518;50.930;5.344;2022-08-19T08:30:05;22.40;75.70
12901;DHT22;6518;50.930;5.344;2022-08-19T08:32:35;22.40;74.80
12901;DHT22;6518;50.930;5.344;2022-08-19T08:35:03;22.30;74.70
12901;DHT22;6518;50.930;5.344;2022-08-19T08:37:31;22.40;74.30
12901;DHT22;6518;50.930;5.344;2022-08-19T08:39:58;22.40;74.60
12901;DHT22;6518;50.930;5.344;2022-08-19T08:42:29;22.50;75.60
12901;DHT22;6518;50.930;5.344;2022-08-19T08:45:00;22.50;74.50
12901;DHT22;6518;50.930;5.344;2022-08-19T08:47:31;22.70;74.00
12901;DHT22;6518;50.930;5.344;2022-08-19T08:50:03;22.70;73.20
12901;DHT22;6518;50.930;5.344;2022-08-19T08:52:34;22.70;73.10
12901;DHT22;6518;50.930;5.344;2022-08-19T08:55:07;22.70;72.70
12901;DHT22;6518;50.930;5.344;2022-08-19T08:57:36;22.70;72.90
12901;DHT22;6518;50.930;5.344;2022-08-19T09:00:08;22.70;73.10
12901;DHT22;6518;50.930;5.344;2022-08-19T09:02:36;22.80;73.10
12901;DHT22;6518;50.930;5.344;2022-08-19T09:05:03;22.80;72.70
12901;DHT22;6518;50.930;5.344;2022-08-19T09:07:40;22.90;72.60
12901;DHT22;6518;50.930;5.344;2022-08-19T09:10:14;22.90;73.20
12901;DHT22;6518;50.930;5.344;2022-08-19T09:12:47;22.90;71.80
12901;DHT22;6518;50.930;5.344;2022-08-19T09:15:25;22.90;71.30
12901;DHT22;6518;50.930;5.344;2022-08-19T09:17:54;22.90;71.40
12901;DHT22;6518;50.930;5.344;2022-08-19T09:20:22;23.00;71.50
12901;DHT22;6518;50.930;5.344;2022-08-19T09:22:51;23.00;71.70
12901;DHT22;6518;50.930;5.344;2022-08-19T09:25:20;23.10;70.30
12901;DHT22;6518;50.930;5.344;2022-08-19T09:27:48;23.10;70.00
12901;DHT22;6518;50.930;5.344;2022-08-19T09:30:17;23.00;69.70
12901;DHT22;6518;50.930;5.344;2022-08-19T09:32:45;22.90;69.80
12901;DHT22;6518;50.930;5.344;2022-08-19T09:35:13;22.90;70.10
12901;DHT22;6518;50.930;5.344;2022-08-19T09:37:40;22.90;70.40
12901;DHT22;6518;50.930;5.344;2022-08-19T09:40:11;23.00;70.20
12901;DHT22;6518;50.930;5.344;2022-08-19T09:42:38;23.10;69.70
12901;DHT22;6518;50.930;5.344;2022-08-19T09:45:06;23.20;69.50
12901;DHT22;6518;50.930;5.344;2022-08-19T09:47:33;23.30;69.10
12901;DHT22;6518;50.930;5.344;2022-08-19T09:50:01;23.40;69.00
12901;DHT22;6518;50.930;5.344;2022-08-19T09:52:28;23.50;67.70
12901;DHT22;6518;50.930;5.344;2022-08-19T09:54:55;23.50;67.50
12901;DHT22;6518;50.930;5.344;2022-08-19T09:57:23;23.40;67.50
12901;DHT22;6518;50.930;5.344;2022-08-19T09:59:50;23.30;67.70
12901;DHT22;6518;50.930;5.344;2022-08-19T10:02:17;23.40;67.80
12901;DHT22;6518;50.930;5.344;2022-08-19T10:04:44;23.50;67.40
12901;DHT22;6518;50.930;5.344;2022-08-19T10:07:29;23.60;67.00
12901;DHT22;6518;50.930;5.344;2022-08-19T10:09:56;23.70;66.80
12901;DHT22;6518;50.930;5.344;2022-08-19T10:12:25;23.90;66.10
12901;DHT22;6518;50.930;5.344;2022-08-19T10:14:52;24.10;66.00
12901;DHT22;6518;50.930;5.344;2022-08-19T10:17:19;24.10;65.00
12901;DHT22;6518;50.930;5.344;2022-08-19T10:19:46;24.20;65.00
12901;DHT22;6518;50.930;5.344;2022-08-19T10:22:13;24.30;64.70
12901;DHT22;6518;50.930;5.344;2022-08-19T10:24:40;24.40;64.50
12901;DHT22;6518;50.930;5.344;2022-08-19T10:27:07;24.60;64.10
12901;DHT22;6518;50.930;5.344;2022-08-19T10:29:36;24.60;63.80
12901;DHT22;6518;50.930;5.344;2022-08-19T10:32:04;24.70;63.90
12901;DHT22;6518;50.930;5.344;2022-08-19T10:34:33;24.80;63.60
12901;DHT22;6518;50.930;5.344;2022-08-19T10:37:00;24.80;62.50
12901;DHT22;6518;50.930;5.344;2022-08-19T10:39:28;24.70;62.50
12901;DHT22;6518;50.930;5.344;2022-08-19T10:41:55;24.70;62.70
12901;DHT22;6518;50.930;5.344;2022-08-19T10:44:23;24.60;64.00
12901;DHT22;6518;50.930;5.344;2022-08-19T10:46:51;24.70;63.20
12901;DHT22;6518;50.930;5.344;2022-08-19T10:49:19;24.70;63.20
12901;DHT22;6518;50.930;5.344;2022-08-19T10:51:46;24.80;63.10
12901;DHT22;6518;50.930;5.344;2022-08-19T10:54:31;24.90;63.20
12901;DHT22;6518;50.930;5.344;2022-08-19T10:57:13;25.00;62.40
12901;DHT22;6518;50.930;5.344;2022-08-19T10:59:41;25.00;62.40
12901;DHT22;6518;50.930;5.344;2022-08-19T11:02:11;25.00;62.40
12901;DHT22;6518;50.930;5.344;2022-08-19T11:04:39;25.00;62.20
12901;DHT22;6518;50.930;5.344;2022-08-19T11:07:07;25.00;62.40
12901;DHT22;6518;50.930;5.344;2022-08-19T11:09:38;25.00;62.20
12901;DHT22;6518;50.930;5.344;2022-08-19T11:12:06;25.00;61.80
12901;DHT22;6518;50.930;5.344;2022-08-19T11:14:34;25.00;61.80
12901;DHT22;6518;50.930;5.344;2022-08-19T11:17:02;24.90;61.80
12901;DHT22;6518;50.930;5.344;2022-08-19T11:19:31;24.90;61.70
12901;DHT22;6518;50.930;5.344;2022-08-19T11:21:59;24.90;61.60
12901;DHT22;6518;50.930;5.344;2022-08-19T11:24:27;24.90;62.10
12901;DHT22;6518;50.930;5.344;2022-08-19T11:27:01;25.00;62.10
12901;DHT22;6518;50.930;5.344;2022-08-19T11:29:30;25.10;62.30
12901;DHT22;6518;50.930;5.344;2022-08-19T11:31:58;25.10;62.00
12901;DHT22;6518;50.930;5.344;2022-08-19T11:34:28;25.10;61.70
12901;DHT22;6518;50.930;5.344;2022-08-19T11:36:57;25.10;62.70
12901;DHT22;6518;50.930;5.344;2022-08-19T11:39:27;25.10;61.60
12901;DHT22;6518;50.930;5.344;2022-08-19T11:41:54;25.10;61.60
12901;DHT22;6518;50.930;5.344;2022-08-19T11:44:21;25.10;61.80
12901;DHT22;6518;50.930;5.344;2022-08-19T11:46:48;25.20;62.10
12901;DHT22;6518;50.930;5.344;2022-08-19T11:49:16;25.30;62.30
12901;DHT22;6518;50.930;5.344;2022-08-19T11:51:45;25.30;61.80
12901;DHT22;6518;50.930;5.344;2022-08-19T11:54:15;25.40;61.90
12901;DHT22;6518;50.930;5.344;2022-08-19T11:56:43;25.50;61.90
12901;DHT22;6518;50.930;5.344;2022-08-19T11:59:10;25.50;61.80
12901;DHT22;6518;50.930;5.344;2022-08-19T12:01:36;25.50;61.60
12901;DHT22;6518;50.930;5.344;2022-08-19T12:04:06;25.60;62.00
12901;DHT22;6518;50.930;5.344;2022-08-19T12:06:33;25.60;61.90
12901;DHT22;6518;50.930;5.344;2022-08-19T12:09:03;25.60;61.90
12901;DHT22;6518;50.930;5.344;2022-08-19T12:11:32;25.60;61.90
12901;DHT22;6518;50.930;5.344;2022-08-19T12:13:59;25.60;62.10
12901;DHT22;6518;50.930;5.344;2022-08-19T12:16:28;25.70;62.20
12901;DHT22;6518;50.930;5.344;2022-08-19T12:18:56;25.70;62.10
12901;DHT22;6518;50.930;5.344;2022-08-19T12:21:26;25.70;61.90
12901;DHT22;6518;50.930;5.344;2022-08-19T12:23:56;25.70;61.70
12901;DHT22;6518;50.930;5.344;2022-08-19T12:26:24;25.70;61.80
12901;DHT22;6518;50.930;5.344;2022-08-19T12:28:53;25.70;61.80
12901;DHT22;6518;50.930;5.344;2022-08-19T12:31:20;25.70;61.60
12901;DHT22;6518;50.930;5.344;2022-08-19T12:33:47;25.70;62.00
12901;DHT22;6518;50.930;5.344;2022-08-19T12:36:15;25.70;62.00
12901;DHT22;6518;50.930;5.344;2022-08-19T12:38:43;25.60;61.90
12901;DHT22;6518;50.930;5.344;2022-08-19T12:41:12;25.50;62.10
12901;DHT22;6518;50.930;5.344;2022-08-19T12:43:39;25.30;62.30
12901;DHT22;6518;50.930;5.344;2022-08-19T12:46:08;25.30;62.70
12901;DHT22;6518;50.930;5.344;2022-08-19T12:48:36;25.30;62.80
12901;DHT22;6518;50.930;5.344;2022-08-19T12:51:06;25.20;62.70
12901;DHT22;6518;50.930;5.344;2022-08-19T12:53:33;25.10;62.90
12901;DHT22;6518;50.930;5.344;2022-08-19T12:56:01;25.10;63.10
12901;DHT22;6518;50.930;5.344;2022-08-19T12:58:28;25.00;63.20
12901;DHT22;6518;50.930;5.344;2022-08-19T13:00:55;25.10;63.40
12901;DHT22;6518;50.930;5.344;2022-08-19T13:03:23;25.10;63.40
12901;DHT22;6518;50.930;5.344;2022-08-19T13:05:55;25.10;63.60
12901;DHT22;6518;50.930;5.344;2022-08-19T13:08:22;25.20;63.80
12901;DHT22;6518;50.930;5.344;2022-08-19T13:10:48;25.30;63.60
12901;DHT22;6518;50.930;5.344;2022-08-19T13:13:16;25.30;63.80
12901;DHT22;6518;50.930;5.344;2022-08-19T13:15:43;25.40;63.80
12901;DHT22;6518;50.930;5.344;2022-08-19T13:18:11;25.40;63.60
12901;DHT22;6518;50.930;5.344;2022-08-19T13:20:40;25.50;63.60
12901;DHT22;6518;50.930;5.344;2022-08-19T13:23:07;25.50;63.60
12901;DHT22;6518;50.930;5.344;2022-08-19T13:25:35;25.50;63.40
12901;DHT22;6518;50.930;5.344;2022-08-19T13:28:02;25.40;63.40
12901;DHT22;6518;50.930;5.344;2022-08-19T13:30:29;25.40;63.70
12901;DHT22;6518;50.930;5.344;2022-08-19T13:33:14;25.40;64.00
12901;DHT22;6518;50.930;5.344;2022-08-19T13:35:45;25.40;64.00
12901;DHT22;6518;50.930;5.344;2022-08-19T13:38:13;25.30;63.90
12901;DHT22;6518;50.930;5.344;2022-08-19T13:40:41;25.30;63.90
12901;DHT22;6518;50.930;5.344;2022-08-19T13:43:09;25.20;63.90
12901;DHT22;6518;50.930;5.344;2022-08-19T13:45:36;25.10;64.10
12901;DHT22;6518;50.930;5.344;2022-08-19T13:48:04;25.10;64.40
12901;DHT22;6518;50.930;5.344;2022-08-19T13:50:35;25.10;64.50
12901;DHT22;6518;50.930;5.344;2022-08-19T13:53:06;25.10;64.70
12901;DHT22;6518;50.930;5.344;2022-08-19T13:55:33;25.20;64.90
12901;DHT22;6518;50.930;5.344;2022-08-19T13:58:02;25.30;65.00
12901;DHT22;6518;50.930;5.344;2022-08-19T14:00:32;25.40;64.70
12901;DHT22;6518;50.930;5.344;2022-08-19T14:02:59;25.50;64.00
12901;DHT22;6518;50.930;5.344;2022-08-19T14:05:27;25.60;64.10
12901;DHT22;6518;50.930;5.344;2022-08-19T14:07:55;25.60;64.40
12901;DHT22;6518;50.930;5.344;2022-08-19T14:10:24;25.70;64.70
12901;DHT22;6518;50.930;5.344;2022-08-19T14:12:53;25.90;64.70
12901;DHT22;6518;50.930;5.344;2022-08-19T14:15:21;26.10;64.50
12901;DHT22;6518;50.930;5.344;2022-08-19T14:17:49;26.20;63.80
12901;DHT22;6518;50.930;5.344;2022-08-19T14:20:17;26.20;63.40
12901;DHT22;6518;50.930;5.344;2022-08-19T14:22:45;26.20;63.40
12901;DHT22;6518;50.930;5.344;2022-08-19T14:25:15;26.30;63.40
12901;DHT22;6518;50.930;5.344;2022-08-19T14:27:43;26.30;63.20
12901;DHT22;6518;50.930;5.344;2022-08-19T14:30:13;26.30;62.90
12901;DHT22;6518;50.930;5.344;2022-08-19T14:32:40;26.30;63.10
12901;DHT22;6518;50.930;5.344;2022-08-19T14:35:09;26.30;62.80
12901;DHT22;6518;50.930;5.344;2022-08-19T14:37:38;26.30;62.60
12901;DHT22;6518;50.930;5.344;2022-08-19T14:40:06;26.30;62.40
12901;DHT22;6518;50.930;5.344;2022-08-19T14:42:34;26.30;62.90
12901;DHT22;6518;50.930;5.344;2022-08-19T14:45:03;26.40;63.00
12901;DHT22;6518;50.930;5.344;2022-08-19T14:47:31;26.40;63.10
12901;DHT22;6518;50.930;5.344;2022-08-19T14:49:59;26.40;63.00
12901;DHT22;6518;50.930;5.344;2022-08-19T14:52:26;26.40;62.60
12901;DHT22;6518;50.930;5.344;2022-08-19T14:54:53;26.50;62.50
12901;DHT22;6518;50.930;5.344;2022-08-19T14:57:19;26.60;62.30
12901;DHT22;6518;50.930;5.344;2022-08-19T14:59:46;26.70;62.50
12901;DHT22;6518;50.930;5.344;2022-08-19T15:02:15;26.70;62.50
12901;DHT22;6518;50.930;5.344;2022-08-19T15:04:42;26.70;61.50
12901;DHT22;6518;50.930;5.344;2022-08-19T15:07:09;26.60;61.40
12901;DHT22;6518;50.930;5.344;2022-08-19T15:09:36;26.60;61.20
12901;DHT22;6518;50.930;5.344;2022-08-19T15:12:03;26.50;61.30
12901;DHT22;6518;50.930;5.344;2022-08-19T15:14:30;26.50;61.40
12901;DHT22;6518;50.930;5.344;2022-08-19T15:17:01;26.40;61.10
12901;DHT22;6518;50.930;5.344;2022-08-19T15:19:31;26.40;61.30
12901;DHT22;6518;50.930;5.344;2022-08-19T15:22:01;26.40;61.50
12901;DHT22;6518;50.930;5.344;2022-08-19T15:24:28;26.30;61.20
12901;DHT22;6518;50.930;5.344;2022-08-19T15:26:55;26.20;61.30
12901;DHT22;6518;50.930;5.344;2022-08-19T15:29:22;26.10;61.40
12901;DHT22;6518;50.930;5.344;2022-08-19T15:31:50;26.00;61.60
12901;DHT22;6518;50.930;5.344;2022-08-19T15:34:17;26.00;61.80
12901;DHT22;6518;50.930;5.344;2022-08-19T15:36:45;26.00;61.90
12901;DHT22;6518;50.930;5.344;2022-08-19T15:39:12;26.00;62.00
12901;DHT22;6518;50.930;5.344;2022-08-19T15:41:41;25.90;62.10
12901;DHT22;6518;50.930;5.344;2022-08-19T15:44:09;25.90;62.20
12901;DHT22;6518;50.930;5.344;2022-08-19T15:46:40;26.00;62.50
12901;DHT22;6518;50.930;5.344;2022-08-19T15:49:07;26.00;62.30
12901;DHT22;6518;50.930;5.344;2022-08-19T15:51:36;26.00;62.20
12901;DHT22;6518;50.930;5.344;2022-08-19T15:54:07;25.90;63.40